sensor_id;sensor_type;location;lat;lon;timestamp;P1;durP1;ratioP1;P2;durP2;ratioP2
6306;SDS011;3186;54.062;9.962;2023-10-13T00:00:32;9.10;;;3.20;;
6306;SDS011;3186;54.062;9.962;2023-10-13T00:03:01;6.07;;;2.90;;
6306;SDS011;3186;54.062;9.962;2023-10-13T00:05:28;4.80;;;2.77;;
6306;SDS011;3186;54.062;9.962;2023-10-13T00:07:56;4.57;;;2.83;;
6306;SDS011;3186;54.062;9.962;2023-10-13T00:10:26;5.77;;;2.70;;
6306;SDS011;3186;54.062;9.962;2023-10-13T00:12:56;5.27;;;2.57;;
6306;SDS011;3186;54.062;9.962;2023-10-13T00:15:51;4.70;;;2.60;;
6306;SDS011;3186;54.062;9.962;2023-10-13T00:20:52;3.47;;;2.70;;
6306;SDS011;3186;54.062;9.962;2023-10-13T00:23:22;4.97;;;2.60;;
6306;SDS011;3186;54.062;9.962;2023-10-13T00:25:51;7.70;;;3.13;;
6306;SDS011;3186;54.062;9.962;2023-10-13T00:28:25;6.83;;;2.90;;
6306;SDS011;3186;54.062;9.962;2023-10-13T00:31:00;4.80;;;2.83;;
6306;SDS011;3186;54.062;9.962;2023-10-13T00:33:36;4.47;;;2.90;;
6306;SDS011;3186;54.062;9.962;2023-10-13T00:36:03;6.30;;;3.40;;
6306;SDS011;3186;54.062;9.962;2023-10-13T00:38:30;5.17;;;2.80;;
6306;SDS011;3186;54.062;9.962;2023-10-13T00:40:56;4.23;;;2.40;;
6306;SDS011;3186;54.062;9.962;2023-10-13T00:43:28;8.20;;;2.70;;
6306;SDS011;3186;54.062;9.962;2023-10-13T00:45:58;3.60;;;2.57;;
6306;SDS011;3186;54.062;9.962;2023-10-13T00:48:29;5.50;;;2.43;;
6306;SDS011;3186;54.062;9.962;2023-10-13T00:51:08;4.10;;;2.53;;
6306;SDS011;3186;54.062;9.962;2023-10-13T00:53:44;4.10;;;2.23;;
6306;SDS011;3186;54.062;9.962;2023-10-13T00:56:12;5.33;;;2.67;;
6306;SDS011;3186;54.062;9.962;2023-10-13T00:58:45;6.17;;;2.57;;
6306;SDS011;3186;54.062;9.962;2023-10-13T01:01:11;5.67;;;2.40;;
6306;SDS011;3186;54.062;9.962;2023-10-13T01:03:51;4.53;;;2.40;;
6306;SDS011;3186;54.062;9.962;2023-10-13T01:06:21;7.77;;;3.00;;
6306;SDS011;3186;54.062;9.962;2023-10-13T01:11:25;6.97;;;2.73;;
6306;SDS011;3186;54.062;9.962;2023-10-13T01:13:52;9.73;;;3.27;;
6306;SDS011;3186;54.062;9.962;2023-10-13T01:16:21;7.67;;;2.60;;
6306;SDS011;3186;54.062;9.962;2023-10-13T01:18:49;12.00;;;2.73;;
6306;SDS011;3186;54.062;9.962;2023-10-13T01:21:16;8.13;;;2.93;;
6306;SDS011;3186;54.062;9.962;2023-10-13T01:23:45;3.57;;;2.17;;
6306;SDS011;3186;54.062;9.962;2023-10-13T01:26:12;5.33;;;2.70;;
6306;SDS011;3186;54.062;9.962;2023-10-13T01:28:46;6.60;;;2.93;;
6306;SDS011;3186;54.062;9.962;2023-10-13T01:31:15;9.60;;;3.10;;
6306;SDS011;3186;54.062;9.962;2023-10-13T01:33:53;4.60;;;2.77;;
6306;SDS011;3186;54.062;9.962;2023-10-13T01:36:20;7.70;;;3.20;;
6306;SDS011;3186;54.062;9.962;2023-10-13T01:38:47;7.30;;;2.70;;
6306;SDS011;3186;54.062;9.962;2023-10-13T01:41:13;7.03;;;2.97;;
6306;SDS011;3186;54.062;9.962;2023-10-13T01:43:39;9.37;;;3.27;;
6306;SDS011;3186;54.062;9.962;2023-10-13T01:46:05;4.40;;;2.70;;
6306;SDS011;3186;54.062;9.962;2023-10-13T01:48:31;4.27;;;2.57;;
6306;SDS011;3186;54.062;9.962;2023-10-13T01:51:03;5.57;;;2.40;;
6306;SDS011;3186;54.062;9.962;2023-10-13T01:53:30;4.10;;;2.47;;
6306;SDS011;3186;54.062;9.962;2023-10-13T01:55:57;5.47;;;2.53;;
6306;SDS011;3186;54.062;9.962;2023-10-13T01:58:23;4.70;;;2.33;;
6306;SDS011;3186;54.062;9.962;2023-10-13T02:00:51;5.83;;;3.00;;
6306;SDS011;3186;54.062;9.962;2023-10-13T02:03:17;8.57;;;4.17;;
6306;SDS011;3186;54.062;9.962;2023-10-13T02:08:16;12.40;;;2.77;;
6306;SDS011;3186;54.062;9.962;2023-10-13T02:10:48;12.73;;;4.67;;
6306;SDS011;3186;54.062;9.962;2023-10-13T02:13:14;8.03;;;2.93;;
6306;SDS011;3186;54.062;9.962;2023-10-13T02:15:43;9.07;;;3.60;;
6306;SDS011;3186;54.062;9.962;2023-10-13T02:18:10;16.77;;;5.10;;
6306;SDS011;3186;54.062;9.962;2023-10-13T02:20:46;7.60;;;2.57;;
6306;SDS011;3186;54.062;9.962;2023-10-13T02:23:19;11.00;;;3.70;;
6306;SDS011;3186;54.062;9.962;2023-10-13T02:25:50;17.40;;;6.57;;
6306;SDS011;3186;54.062;9.962;2023-10-13T02:28:29;8.27;;;4.17;;
6306;SDS011;3186;54.062;9.962;2023-10-13T02:31:01;8.83;;;4.33;;
6306;SDS011;3186;54.062;9.962;2023-10-13T02:33:29;14.93;;;6.20;;
6306;SDS011;3186;54.062;9.962;2023-10-13T02:35:58;16.67;;;8.87;;
6306;SDS011;3186;54.062;9.962;2023-10-13T02:38:28;21.73;;;9.37;;
6306;SDS011;3186;54.062;9.962;2023-10-13T02:40:57;28.20;;;11.37;;
6306;SDS011;3186;54.062;9.962;2023-10-13T02:43:30;17.70;;;10.30;;
6306;SDS011;3186;54.062;9.962;2023-10-13T02:45:59;25.53;;;10.97;;
6306;SDS011;3186;54.062;9.962;2023-10-13T02:48:26;23.23;;;10.23;;
6306;SDS011;3186;54.062;9.962;2023-10-13T02:51:05;18.43;;;9.27;;
6306;SDS011;3186;54.062;9.962;2023-10-13T02:53:40;32.97;;;12.83;;
6306;SDS011;3186;54.062;9.962;2023-10-13T02:56:06;39.33;;;12.67;;
6306;SDS011;3186;54.062;9.962;2023-10-13T02:58:33;29.03;;;13.00;;
6306;SDS011;3186;54.062;9.962;2023-10-13T03:01:05;39.73;;;15.13;;
6306;SDS011;3186;54.062;9.962;2023-10-13T03:03:42;22.53;;;10.70;;
6306;SDS011;3186;54.062;9.962;2023-10-13T03:06:08;28.87;;;11.97;;
6306;SDS011;3186;54.062;9.962;2023-10-13T03:08:37;36.43;;;12.93;;
6306;SDS011;3186;54.062;9.962;2023-10-13T03:11:03;37.93;;;14.87;;
6306;SDS011;3186;54.062;9.962;2023-10-13T03:13:30;33.77;;;13.00;;
6306;SDS011;3186;54.062;9.962;2023-10-13T03:15:58;19.63;;;10.47;;
6306;SDS011;3186;54.062;9.962;2023-10-13T03:18:24;43.80;;;14.03;;
6306;SDS011;3186;54.062;9.962;2023-10-13T03:20:50;24.03;;;11.37;;
6306;SDS011;3186;54.062;9.962;2023-10-13T03:23:24;29.53;;;12.27;;
6306;SDS011;3186;54.062;9.962;2023-10-13T03:25:50;26.70;;;12.63;;
6306;SDS011;3186;54.062;9.962;2023-10-13T03:28:19;18.83;;;9.73;;
6306;SDS011;3186;54.062;9.962;2023-10-13T03:30:48;24.70;;;11.33;;
6306;SDS011;3186;54.062;9.962;2023-10-13T03:33:17;26.17;;;11.73;;
6306;SDS011;3186;54.062;9.962;2023-10-13T03:35:53;26.57;;;11.03;;
6306;SDS011;3186;54.062;9.962;2023-10-13T03:38:19;22.27;;;9.97;;
6306;SDS011;3186;54.062;9.962;2023-10-13T03:40:49;22.20;;;9.33;;
6306;SDS011;3186;54.062;9.962;2023-10-13T03:43:32;24.50;;;9.40;;
6306;SDS011;3186;54.062;9.962;2023-10-13T03:46:10;18.80;;;9.50;;
6306;SDS011;3186;54.062;9.962;2023-10-13T03:48:35;17.90;;;8.47;;
6306;SDS011;3186;54.062;9.962;2023-10-13T03:51:17;17.73;;;8.27;;
6306;SDS011;3186;54.062;9.962;2023-10-13T03:53:43;23.77;;;9.93;;
6306;SDS011;3186;54.062;9.962;2023-10-13T03:56:18;17.90;;;9.97;;
6306;SDS011;3186;54.062;9.962;2023-10-13T03:58:54;25.40;;;10.37;;
6306;SDS011;3186;54.062;9.962;2023-10-13T04:01:25;20.37;;;10.03;;
6306;SDS011;3186;54.062;9.962;2023-10-13T04:03:58;21.37;;;10.77;;
6306;SDS011;3186;54.062;9.962;2023-10-13T04:06:31;19.93;;;11.30;;
6306;SDS011;3186;54.062;9.962;2023-10-13T04:09:19;22.53;;;12.13;;
6306;SDS011;3186;54.062;9.962;2023-10-13T04:11:54;23.67;;;11.83;;
6306;SDS011;3186;54.062;9.962;2023-10-13T04:14:29;33.40;;;12.83;;
6306;SDS011;3186;54.062;9.962;2023-10-13T04:17:14;28.87;;;12.77;;
6306;SDS011;3186;54.062;9.962;2023-10-13T04:19:40;30.67;;;12.30;;
6306;SDS011;3186;54.062;9.962;2023-10-13T04:22:24;21.13;;;11.30;;
6306;SDS011;3186;54.062;9.962;2023-10-13T04:25:12;18.00;;;9.33;;
6306;SDS011;3186;54.062;9.962;2023-10-13T04:27:56;19.60;;;10.10;;
6306;SDS011;3186;54.062;9.962;2023-10-13T04:30:37;18.33;;;11.20;;
6306;SDS011;3186;54.062;9.962;2023-10-13T04:33:21;12.70;;;8.23;;
6306;SDS011;3186;54.062;9.962;2023-10-13T04:38:50;17.23;;;9.53;;
6306;SDS011;3186;54.062;9.962;2023-10-13T04:41:26;16.57;;;9.50;;
6306;SDS011;3186;54.062;9.962;2023-10-13T04:44:05;35.83;;;17.83;;
6306;SDS011;3186;54.062;9.962;2023-10-13T04:46:51;29.43;;;14.60;;
6306;SDS011;3186;54.062;9.962;2023-10-13T04:49:20;16.60;;;9.07;;
6306;SDS011;3186;54.062;9.962;2023-10-13T04:51:57;16.90;;;10.90;;
6306;SDS011;3186;54.062;9.962;2023-10-13T04:54:27;19.13;;;10.83;;
6306;SDS011;3186;54.062;9.962;2023-10-13T04:57:10;13.93;;;9.60;;
6306;SDS011;3186;54.062;9.962;2023-10-13T04:59:49;14.03;;;9.10;;
6306;SDS011;3186;54.062;9.962;2023-10-13T05:02:34;11.17;;;8.03;;
6306;SDS011;3186;54.062;9.962;2023-10-13T05:05:03;14.87;;;10.13;;
6306;SDS011;3186;54.062;9.962;2023-10-13T05:07:42;9.73;;;7.60;;
6306;SDS011;3186;54.062;9.962;2023-10-13T05:10:27;17.23;;;11.10;;
6306;SDS011;3186;54.062;9.962;2023-10-13T05:13:12;15.47;;;9.90;;
6306;SDS011;3186;54.062;9.962;2023-10-13T05:15:56;16.13;;;10.63;;
6306;SDS011;3186;54.062;9.962;2023-10-13T05:18:40;17.77;;;11.60;;
6306;SDS011;3186;54.062;9.962;2023-10-13T05:21:25;16.43;;;11.63;;
6306;SDS011;3186;54.062;9.962;2023-10-13T05:24:09;23.80;;;14.80;;
6306;SDS011;3186;54.062;9.962;2023-10-13T05:26:53;20.70;;;13.37;;
6306;SDS011;3186;54.062;9.962;2023-10-13T05:29:38;18.83;;;13.63;;
6306;SDS011;3186;54.062;9.962;2023-10-13T05:32:23;24.03;;;15.13;;
6306;SDS011;3186;54.062;9.962;2023-10-13T05:35:08;22.93;;;14.87;;
6306;SDS011;3186;54.062;9.962;2023-10-13T05:37:53;28.20;;;18.50;;
6306;SDS011;3186;54.062;9.962;2023-10-13T05:40:37;31.13;;;18.63;;
6306;SDS011;3186;54.062;9.962;2023-10-13T05:43:22;27.70;;;18.17;;
6306;SDS011;3186;54.062;9.962;2023-10-13T05:46:06;22.53;;;16.27;;
6306;SDS011;3186;54.062;9.962;2023-10-13T05:48:50;30.17;;;18.17;;
6306;SDS011;3186;54.062;9.962;2023-10-13T05:51:26;35.20;;;21.23;;
6306;SDS011;3186;54.062;9.962;2023-10-13T05:54:08;35.43;;;22.30;;
6306;SDS011;3186;54.062;9.962;2023-10-13T05:56:38;39.30;;;23.40;;
6306;SDS011;3186;54.062;9.962;2023-10-13T05:59:29;38.07;;;24.73;;
6306;SDS011;3186;54.062;9.962;2023-10-13T06:02:15;44.83;;;28.43;;
6306;SDS011;3186;54.062;9.962;2023-10-13T06:05:03;51.17;;;29.10;;
6306;SDS011;3186;54.062;9.962;2023-10-13T06:07:48;42.50;;;27.97;;
6306;SDS011;3186;54.062;9.962;2023-10-13T06:10:33;38.47;;;27.17;;
6306;SDS011;3186;54.062;9.962;2023-10-13T06:13:17;62.00;;;34.80;;
6306;SDS011;3186;54.062;9.962;2023-10-13T06:16:11;51.43;;;31.50;;
6306;SDS011;3186;54.062;9.962;2023-10-13T06:18:57;47.07;;;32.07;;
6306;SDS011;3186;54.062;9.962;2023-10-13T06:21:42;59.63;;;35.93;;
6306;SDS011;3186;54.062;9.962;2023-10-13T06:24:26;53.53;;;34.73;;
6306;SDS011;3186;54.062;9.962;2023-10-13T06:27:10;56.03;;;37.50;;
6306;SDS011;3186;54.062;9.962;2023-10-13T06:29:55;51.03;;;34.80;;
6306;SDS011;3186;54.062;9.962;2023-10-13T06:32:21;59.03;;;36.63;;
6306;SDS011;3186;54.062;9.962;2023-10-13T06:34:53;61.33;;;38.27;;
6306;SDS011;3186;54.062;9.962;2023-10-13T06:37:23;65.53;;;38.80;;
6306;SDS011;3186;54.062;9.962;2023-10-13T06:39:50;57.43;;;36.63;;
6306;SDS011;3186;54.062;9.962;2023-10-13T06:42:16;67.63;;;39.50;;
6306;SDS011;3186;54.062;9.962;2023-10-13T06:44:44;61.67;;;37.13;;
6306;SDS011;3186;54.062;9.962;2023-10-13T06:47:11;55.67;;;36.13;;
6306;SDS011;3186;54.062;9.962;2023-10-13T06:49:39;54.60;;;35.83;;
6306;SDS011;3186;54.062;9.962;2023-10-13T06:52:08;60.73;;;35.07;;
6306;SDS011;3186;54.062;9.962;2023-10-13T06:54:34;56.57;;;34.03;;
6306;SDS011;3186;54.062;9.962;2023-10-13T06:57:01;52.67;;;35.07;;
6306;SDS011;3186;54.062;9.962;2023-10-13T06:59:29;53.47;;;34.03;;
6306;SDS011;3186;54.062;9.962;2023-10-13T07:01:58;61.33;;;35.73;;
6306;SDS011;3186;54.062;9.962;2023-10-13T07:04:30;60.23;;;37.13;;
6306;SDS011;3186;54.062;9.962;2023-10-13T07:06:56;61.97;;;35.20;;
6306;SDS011;3186;54.062;9.962;2023-10-13T07:09:21;55.20;;;35.93;;
6306;SDS011;3186;54.062;9.962;2023-10-13T07:12:13;50.53;;;36.33;;
6306;SDS011;3186;54.062;9.962;2023-10-13T07:14:45;48.67;;;31.90;;
6306;SDS011;3186;54.062;9.962;2023-10-13T07:17:17;58.00;;;36.43;;
6306;SDS011;3186;54.062;9.962;2023-10-13T07:19:53;57.47;;;38.33;;
6306;SDS011;3186;54.062;9.962;2023-10-13T07:22:24;54.67;;;35.87;;
6306;SDS011;3186;54.062;9.962;2023-10-13T07:24:52;54.77;;;36.00;;
6306;SDS011;3186;54.062;9.962;2023-10-13T07:27:19;57.20;;;37.53;;
6306;SDS011;3186;54.062;9.962;2023-10-13T07:29:51;56.67;;;36.87;;
6306;SDS011;3186;54.062;9.962;2023-10-13T07:32:36;58.43;;;35.33;;
6306;SDS011;3186;54.062;9.962;2023-10-13T07:35:02;62.17;;;36.97;;
6306;SDS011;3186;54.062;9.962;2023-10-13T07:37:32;59.53;;;38.03;;
6306;SDS011;3186;54.062;9.962;2023-10-13T07:39:58;58.67;;;37.77;;
6306;SDS011;3186;54.062;9.962;2023-10-13T07:42:25;52.67;;;34.67;;
6306;SDS011;3186;54.062;9.962;2023-10-13T07:45:04;55.93;;;36.80;;
6306;SDS011;3186;54.062;9.962;2023-10-13T07:47:31;57.47;;;36.03;;
6306;SDS011;3186;54.062;9.962;2023-10-13T07:50:02;57.70;;;37.33;;
6306;SDS011;3186;54.062;9.962;2023-10-13T07:52:31;52.30;;;35.17;;
6306;SDS011;3186;54.062;9.962;2023-10-13T07:55:19;55.27;;;34.07;;
6306;SDS011;3186;54.062;9.962;2023-10-13T07:57:46;45.60;;;32.33;;
6306;SDS011;3186;54.062;9.962;2023-10-13T08:00:24;56.30;;;34.23;;
6306;SDS011;3186;54.062;9.962;2023-10-13T08:03:08;45.47;;;31.83;;
6306;SDS011;3186;54.062;9.962;2023-10-13T08:05:35;49.30;;;30.30;;
6306;SDS011;3186;54.062;9.962;2023-10-13T08:08:19;42.20;;;30.17;;
6306;SDS011;3186;54.062;9.962;2023-10-13T08:10:46;47.10;;;30.93;;
6306;SDS011;3186;54.062;9.962;2023-10-13T08:13:12;44.77;;;28.63;;
6306;SDS011;3186;54.062;9.962;2023-10-13T08:15:41;39.43;;;29.97;;
6306;SDS011;3186;54.062;9.962;2023-10-13T08:18:13;41.87;;;29.67;;
6306;SDS011;3186;54.062;9.962;2023-10-13T08:20:56;38.00;;;27.17;;
6306;SDS011;3186;54.062;9.962;2023-10-13T08:23:31;38.47;;;26.53;;
6306;SDS011;3186;54.062;9.962;2023-10-13T08:26:21;37.67;;;26.80;;
6306;SDS011;3186;54.062;9.962;2023-10-13T08:29:02;39.07;;;26.17;;
6306;SDS011;3186;54.062;9.962;2023-10-13T08:31:47;35.20;;;23.87;;
6306;SDS011;3186;54.062;9.962;2023-10-13T08:34:33;33.27;;;23.57;;
6306;SDS011;3186;54.062;9.962;2023-10-13T08:37:09;29.63;;;22.83;;
6306;SDS011;3186;54.062;9.962;2023-10-13T08:39:48;25.90;;;21.43;;
6306;SDS011;3186;54.062;9.962;2023-10-13T08:42:25;26.20;;;20.17;;
6306;SDS011;3186;54.062;9.962;2023-10-13T08:45:09;22.80;;;18.30;;
6306;SDS011;3186;54.062;9.962;2023-10-13T08:47:51;22.47;;;18.07;;
6306;SDS011;3186;54.062;9.962;2023-10-13T08:50:32;20.33;;;16.00;;
6306;SDS011;3186;54.062;9.962;2023-10-13T08:53:31;18.57;;;15.73;;
6306;SDS011;3186;54.062;9.962;2023-10-13T08:56:10;17.83;;;14.63;;
6306;SDS011;3186;54.062;9.962;2023-10-13T09:01:24;15.80;;;12.87;;
6306;SDS011;3186;54.062;9.962;2023-10-13T09:04:05;15.40;;;13.63;;
6306;SDS011;3186;54.062;9.962;2023-10-13T09:09:28;15.50;;;13.33;;
6306;SDS011;3186;54.062;9.962;2023-10-13T09:12:16;14.67;;;13.13;;
6306;SDS011;3186;54.062;9.962;2023-10-13T09:14:52;14.07;;;12.17;;
6306;SDS011;3186;54.062;9.962;2023-10-13T09:17:29;15.47;;;12.60;;
6306;SDS011;3186;54.062;9.962;2023-10-13T09:20:02;12.70;;;11.23;;
6306;SDS011;3186;54.062;9.962;2023-10-13T09:22:51;13.20;;;11.20;;
6306;SDS011;3186;54.062;9.962;2023-10-13T09:25:26;12.30;;;10.40;;
6306;SDS011;3186;54.062;9.962;2023-10-13T09:27:58;12.23;;;10.83;;
6306;SDS011;3186;54.062;9.962;2023-10-13T09:30:25;10.60;;;9.53;;
6306;SDS011;3186;54.062;9.962;2023-10-13T09:32:59;10.30;;;9.33;;
6306;SDS011;3186;54.062;9.962;2023-10-13T09:35:40;9.40;;;8.37;;
6306;SDS011;3186;54.062;9.962;2023-10-13T09:38:17;9.23;;;8.23;;
6306;SDS011;3186;54.062;9.962;2023-10-13T09:40:43;9.37;;;8.47;;
6306;SDS011;3186;54.062;9.962;2023-10-13T09:43:16;9.37;;;8.37;;
6306;SDS011;3186;54.062;9.962;2023-10-13T09:45:43;9.07;;;8.17;;
6306;SDS011;3186;54.062;9.962;2023-10-13T09:48:48;11.20;;;8.27;;
6306;SDS011;3186;54.062;9.962;2023-10-13T09:51:29;11.37;;;8.43;;
6306;SDS011;3186;54.062;9.962;2023-10-13T09:54:05;8.80;;;7.90;;
6306;SDS011;3186;54.062;9.962;2023-10-13T09:56:47;10.67;;;8.67;;
6306;SDS011;3186;54.062;9.962;2023-10-13T09:59:31;9.10;;;8.20;;
6306;SDS011;3186;54.062;9.962;2023-10-13T10:02:00;9.80;;;8.80;;
6306;SDS011;3186;54.062;9.962;2023-10-13T10:04:34;9.70;;;8.70;;
6306;SDS011;3186;54.062;9.962;2023-10-13T10:07:23;11.43;;;9.70;;
6306;SDS011;3186;54.062;9.962;2023-10-13T10:09:59;11.17;;;9.77;;
6306;SDS011;3186;54.062;9.962;2023-10-13T10:15:07;10.30;;;9.07;;
6306;SDS011;3186;54.062;9.962;2023-10-13T10:17:45;10.47;;;9.33;;
6306;SDS011;3186;54.062;9.962;2023-10-13T10:20:12;16.73;;;10.27;;
6306;SDS011;3186;54.062;9.962;2023-10-13T10:22:54;13.07;;;10.47;;
6306;SDS011;3186;54.062;9.962;2023-10-13T10:25:30;12.73;;;10.43;;
6306;SDS011;3186;54.062;9.962;2023-10-13T10:28:06;10.97;;;9.60;;
6306;SDS011;3186;54.062;9.962;2023-10-13T10:30:33;11.77;;;9.60;;
6306;SDS011;3186;54.062;9.962;2023-10-13T10:33:03;11.33;;;9.57;;
6306;SDS011;3186;54.062;9.962;2023-10-13T10:35:57;12.23;;;9.70;;
6306;SDS011;3186;54.062;9.962;2023-10-13T10:38:24;13.47;;;9.50;;
6306;SDS011;3186;54.062;9.962;2023-10-13T10:40:54;11.60;;;9.00;;
6306;SDS011;3186;54.062;9.962;2023-10-13T10:46:28;18.97;;;10.13;;
6306;SDS011;3186;54.062;9.962;2023-10-13T10:48:57;11.10;;;9.50;;
6306;SDS011;3186;54.062;9.962;2023-10-13T10:51:26;14.87;;;9.30;;
6306;SDS011;3186;54.062;9.962;2023-10-13T10:53:57;14.53;;;8.73;;
6306;SDS011;3186;54.062;9.962;2023-10-13T10:56:26;13.00;;;9.90;;
6306;SDS011;3186;54.062;9.962;2023-10-13T10:59:02;16.67;;;10.10;;
6306;SDS011;3186;54.062;9.962;2023-10-13T11:01:30;10.97;;;8.90;;
6306;SDS011;3186;54.062;9.962;2023-10-13T11:04:04;16.10;;;10.13;;
6306;SDS011;3186;54.062;9.962;2023-10-13T11:06:36;18.40;;;10.33;;
6306;SDS011;3186;54.062;9.962;2023-10-13T11:09:07;14.83;;;10.93;;
6306;SDS011;3186;54.062;9.962;2023-10-13T11:11:52;18.80;;;9.37;;
6306;SDS011;3186;54.062;9.962;2023-10-13T11:14:22;12.77;;;9.40;;
6306;SDS011;3186;54.062;9.962;2023-10-13T11:16:49;16.17;;;9.53;;
6306;SDS011;3186;54.062;9.962;2023-10-13T11:19:16;17.07;;;9.70;;
6306;SDS011;3186;54.062;9.962;2023-10-13T11:21:45;17.97;;;10.07;;
6306;SDS011;3186;54.062;9.962;2023-10-13T11:24:12;15.23;;;9.10;;
6306;SDS011;3186;54.062;9.962;2023-10-13T11:26:38;17.40;;;9.87;;
6306;SDS011;3186;54.062;9.962;2023-10-13T11:29:17;17.83;;;9.80;;
6306;SDS011;3186;54.062;9.962;2023-10-13T11:31:47;16.20;;;9.70;;
6306;SDS011;3186;54.062;9.962;2023-10-13T11:34:24;19.47;;;10.23;;
6306;SDS011;3186;54.062;9.962;2023-10-13T11:36:50;11.43;;;8.53;;
6306;SDS011;3186;54.062;9.962;2023-10-13T11:39:17;18.50;;;10.90;;
6306;SDS011;3186;54.062;9.962;2023-10-13T11:41:49;20.63;;;10.40;;
6306;SDS011;3186;54.062;9.962;2023-10-13T11:44:21;13.73;;;10.10;;
6306;SDS011;3186;54.062;9.962;2023-10-13T11:46:51;17.40;;;9.60;;
6306;SDS011;3186;54.062;9.962;2023-10-13T11:49:20;12.33;;;8.87;;
6306;SDS011;3186;54.062;9.962;2023-10-13T11:51:53;19.13;;;10.07;;
6306;SDS011;3186;54.062;9.962;2023-10-13T11:54:41;15.13;;;9.77;;
6306;SDS011;3186;54.062;9.962;2023-10-13T11:57:07;16.03;;;9.43;;
6306;SDS011;3186;54.062;9.962;2023-10-13T11:59:33;15.17;;;10.53;;
6306;SDS011;3186;54.062;9.962;2023-10-13T12:02:01;13.70;;;8.47;;
6306;SDS011;3186;54.062;9.962;2023-10-13T12:04:38;14.13;;;9.77;;
6306;SDS011;3186;54.062;9.962;2023-10-13T12:07:16;18.50;;;9.47;;
6306;SDS011;3186;54.062;9.962;2023-10-13T12:09:49;25.13;;;10.17;;
6306;SDS011;3186;54.062;9.962;2023-10-13T12:14:48;20.33;;;10.67;;
6306;SDS011;3186;54.062;9.962;2023-10-13T12:17:24;15.60;;;9.37;;
6306;SDS011;3186;54.062;9.962;2023-10-13T12:20:02;16.80;;;10.37;;
6306;SDS011;3186;54.062;9.962;2023-10-13T12:22:38;16.43;;;9.70;;
6306;SDS011;3186;54.062;9.962;2023-10-13T12:25:05;16.30;;;10.27;;
6306;SDS011;3186;54.062;9.962;2023-10-13T12:27:50;16.80;;;9.67;;
6306;SDS011;3186;54.062;9.962;2023-10-13T12:30:21;22.23;;;10.17;;
6306;SDS011;3186;54.062;9.962;2023-10-13T12:33:13;15.90;;;9.77;;
6306;SDS011;3186;54.062;9.962;2023-10-13T12:35:42;18.90;;;9.63;;
6306;SDS011;3186;54.062;9.962;2023-10-13T12:38:31;18.30;;;10.17;;
6306;SDS011;3186;54.062;9.962;2023-10-13T12:41:15;19.20;;;9.87;;
6306;SDS011;3186;54.062;9.962;2023-10-13T12:44:03;22.13;;;10.20;;
6306;SDS011;3186;54.062;9.962;2023-10-13T12:46:49;15.00;;;9.93;;
6306;SDS011;3186;54.062;9.962;2023-10-13T12:49:34;12.83;;;9.43;;
6306;SDS011;3186;54.062;9.962;2023-10-13T12:52:24;20.27;;;9.87;;
6306;SDS011;3186;54.062;9.962;2023-10-13T12:54:57;18.50;;;9.23;;
6306;SDS011;3186;54.062;9.962;2023-10-13T12:57:29;12.03;;;9.27;;
6306;SDS011;3186;54.062;9.962;2023-10-13T12:59:55;16.53;;;9.70;;
6306;SDS011;3186;54.062;9.962;2023-10-13T13:02:21;16.03;;;8.73;;
6306;SDS011;3186;54.062;9.962;2023-10-13T13:04:54;14.37;;;8.70;;
6306;SDS011;3186;54.062;9.962;2023-10-13T13:07:37;24.60;;;9.13;;
6306;SDS011;3186;54.062;9.962;2023-10-13T13:10:12;14.83;;;9.10;;
6306;SDS011;3186;54.062;9.962;2023-10-13T13:12:41;18.03;;;8.83;;
6306;SDS011;3186;54.062;9.962;2023-10-13T13:15:07;13.43;;;7.83;;
6306;SDS011;3186;54.062;9.962;2023-10-13T13:17:34;22.40;;;8.63;;
6306;SDS011;3186;54.062;9.962;2023-10-13T13:20:06;18.30;;;8.60;;
6306;SDS011;3186;54.062;9.962;2023-10-13T13:22:39;13.33;;;8.00;;
6306;SDS011;3186;54.062;9.962;2023-10-13T13:25:05;17.53;;;8.00;;
6306;SDS011;3186;54.062;9.962;2023-10-13T13:27:33;20.13;;;7.97;;
6306;SDS011;3186;54.062;9.962;2023-10-13T13:29:58;20.17;;;7.97;;
6306;SDS011;3186;54.062;9.962;2023-10-13T13:32:25;20.90;;;7.70;;
6306;SDS011;3186;54.062;9.962;2023-10-13T13:34:53;18.00;;;7.50;;
6306;SDS011;3186;54.062;9.962;2023-10-13T13:37:39;18.17;;;8.00;;
6306;SDS011;3186;54.062;9.962;2023-10-13T13:40:05;14.53;;;8.20;;
6306;SDS011;3186;54.062;9.962;2023-10-13T13:42:41;16.33;;;7.67;;
6306;SDS011;3186;54.062;9.962;2023-10-13T13:45:17;19.23;;;7.70;;
6306;SDS011;3186;54.062;9.962;2023-10-13T13:47:48;13.00;;;7.40;;
6306;SDS011;3186;54.062;9.962;2023-10-13T13:50:24;15.87;;;7.40;;
6306;SDS011;3186;54.062;9.962;2023-10-13T13:52:58;24.80;;;7.47;;
6306;SDS011;3186;54.062;9.962;2023-10-13T13:55:25;20.70;;;7.93;;
6306;SDS011;3186;54.062;9.962;2023-10-13T13:57:55;18.73;;;6.97;;
6306;SDS011;3186;54.062;9.962;2023-10-13T14:00:21;21.27;;;7.13;;
6306;SDS011;3186;54.062;9.962;2023-10-13T14:03:02;17.83;;;6.70;;
6306;SDS011;3186;54.062;9.962;2023-10-13T14:05:29;13.57;;;6.97;;
6306;SDS011;3186;54.062;9.962;2023-10-13T14:07:54;19.43;;;6.90;;
6306;SDS011;3186;54.062;9.962;2023-10-13T14:10:20;11.73;;;7.07;;
6306;SDS011;3186;54.062;9.962;2023-10-13T14:13:01;20.23;;;8.43;;
6306;SDS011;3186;54.062;9.962;2023-10-13T14:15:38;14.70;;;7.10;;
6306;SDS011;3186;54.062;9.962;2023-10-13T14:18:09;19.37;;;7.50;;
6306;SDS011;3186;54.062;9.962;2023-10-13T14:20:40;22.20;;;8.23;;
6306;SDS011;3186;54.062;9.962;2023-10-13T14:23:07;18.37;;;7.53;;
6306;SDS011;3186;54.062;9.962;2023-10-13T14:25:37;15.43;;;7.57;;
6306;SDS011;3186;54.062;9.962;2023-10-13T14:28:06;12.90;;;6.97;;
6306;SDS011;3186;54.062;9.962;2023-10-13T14:30:32;18.47;;;8.03;;
6306;SDS011;3186;54.062;9.962;2023-10-13T14:32:58;19.30;;;8.10;;
6306;SDS011;3186;54.062;9.962;2023-10-13T14:35:24;20.60;;;7.30;;
6306;SDS011;3186;54.062;9.962;2023-10-13T14:37:54;20.63;;;7.67;;
6306;SDS011;3186;54.062;9.962;2023-10-13T14:40:20;21.17;;;8.20;;
6306;SDS011;3186;54.062;9.962;2023-10-13T14:42:47;19.17;;;7.87;;
6306;SDS011;3186;54.062;9.962;2023-10-13T14:45:13;15.27;;;7.73;;
6306;SDS011;3186;54.062;9.962;2023-10-13T14:47:41;18.83;;;8.77;;
6306;SDS011;3186;54.062;9.962;2023-10-13T14:50:08;25.47;;;9.53;;
6306;SDS011;3186;54.062;9.962;2023-10-13T14:52:47;18.70;;;8.40;;
6306;SDS011;3186;54.062;9.962;2023-10-13T14:55:13;17.90;;;8.43;;
6306;SDS011;3186;54.062;9.962;2023-10-13T14:57:47;21.70;;;8.87;;
6306;SDS011;3186;54.062;9.962;2023-10-13T15:00:14;17.80;;;8.63;;
6306;SDS011;3186;54.062;9.962;2023-10-13T15:02:43;23.20;;;8.07;;
6306;SDS011;3186;54.062;9.962;2023-10-13T15:05:11;20.10;;;7.47;;
6306;SDS011;3186;54.062;9.962;2023-10-13T15:07:42;17.40;;;8.43;;
6306;SDS011;3186;54.062;9.962;2023-10-13T15:10:11;14.43;;;8.13;;
6306;SDS011;3186;54.062;9.962;2023-10-13T15:12:40;20.77;;;8.97;;
6306;SDS011;3186;54.062;9.962;2023-10-13T15:15:09;16.83;;;8.30;;
6306;SDS011;3186;54.062;9.962;2023-10-13T15:17:38;15.67;;;8.97;;
6306;SDS011;3186;54.062;9.962;2023-10-13T15:20:08;17.27;;;8.37;;
6306;SDS011;3186;54.062;9.962;2023-10-13T15:22:43;14.33;;;8.37;;
6306;SDS011;3186;54.062;9.962;2023-10-13T15:25:09;17.40;;;8.47;;
6306;SDS011;3186;54.062;9.962;2023-10-13T15:27:45;22.57;;;9.40;;
6306;SDS011;3186;54.062;9.962;2023-10-13T15:30:21;19.77;;;9.07;;
6306;SDS011;3186;54.062;9.962;2023-10-13T15:32:56;15.63;;;8.37;;
6306;SDS011;3186;54.062;9.962;2023-10-13T15:35:22;16.20;;;8.73;;
6306;SDS011;3186;54.062;9.962;2023-10-13T15:37:53;22.63;;;9.37;;
6306;SDS011;3186;54.062;9.962;2023-10-13T15:40:20;15.20;;;8.73;;
6306;SDS011;3186;54.062;9.962;2023-10-13T15:42:46;13.40;;;8.27;;
6306;SDS011;3186;54.062;9.962;2023-10-13T15:45:12;23.50;;;10.07;;
6306;SDS011;3186;54.062;9.962;2023-10-13T15:47:45;18.20;;;9.40;;
6306;SDS011;3186;54.062;9.962;2023-10-13T15:50:14;21.70;;;9.53;;
6306;SDS011;3186;54.062;9.962;2023-10-13T15:52:42;19.50;;;8.43;;
6306;SDS011;3186;54.062;9.962;2023-10-13T15:55:14;24.37;;;9.83;;
6306;SDS011;3186;54.062;9.962;2023-10-13T15:57:42;17.03;;;8.73;;
6306;SDS011;3186;54.062;9.962;2023-10-13T16:00:09;20.40;;;9.70;;